Billinghay, United Kingdom
Current Conditions -  °F | °C
As of 4:50 AM on Friday 31 Oct 2014 (Local Time) from EGXC Reporting Station
Haze Haze  
Wind Chill: 13°   Ceiling: 23000
Heat Index: 13°   Visibility: 2.5mi
Dew Point: 13°   Wind: 6mph
Humidity: 100%   Direction: 180°S
Pressure: 29.97"   Gusts: NA
Location:  53.08°N, 0.28°W
Report Text: EGXC 310450Z 18005KT 4000 BR BKN230 13/13 Q1015 GRN
Loading
Personal Weather Stations






























Interactive Weather Map
Tropical Storm Tracking
New forecast layout! Learn more

10-Day Weather Forecast

Advertisements
Track Severe Weather on mobile